Alagoa Grande, Brazil
Current Conditions -  °F | °C
As of 9:00 AM on Wednesday 22 Oct 2014 (Local Time) from SBKG Reporting Station
Broken Clouds Broken Clouds  
Wind Chill: 77°   Ceiling: 1600
Heat Index: 79°   Visibility: 6mi
Dew Point: 66°   Wind: 10mph
Humidity: 69%   Direction: 110°ESE
Pressure: 30.06"   Gusts: NA
Location:  7.16°S, 35.63°W
Report Text: SBKG 221200Z 11009KT 9999 BKN016 BKN021 25/19 Q1018
Loading
Personal Weather Stations






























Interactive Weather Map
Tropical Storm Tracking
New forecast layout! Learn more

10-Day Weather Forecast

Advertisements
Track Severe Weather on mobile